createdAt,value
2023-12-11T00:01:13.747Z,1.70
2023-12-11T00:03:41.942Z,1.50
2023-12-11T00:06:10.297Z,1.80
2023-12-11T00:08:38.636Z,1.83
2023-12-11T00:11:06.869Z,2.20
2023-12-11T00:13:36.083Z,1.92
2023-12-11T00:16:04.115Z,1.90
2023-12-11T00:18:32.181Z,2.00
2023-12-11T00:21:02.224Z,1.92
2023-12-11T00:25:57.784Z,1.63
2023-12-11T00:28:25.652Z,1.42
2023-12-11T00:30:54.917Z,1.77
2023-12-11T00:33:22.870Z,0.93
2023-12-11T00:35:51.479Z,0.95
2023-12-11T00:38:19.461Z,1.33
2023-12-11T00:40:47.715Z,1.05
2023-12-11T00:43:15.692Z,1.95
2023-12-11T00:45:43.908Z,1.30
2023-12-11T00:48:13.257Z,1.40
2023-12-11T00:50:41.365Z,1.60
2023-12-11T00:53:09.332Z,1.48
2023-12-11T00:55:37.405Z,1.00
2023-12-11T00:58:05.317Z,1.35
2023-12-11T01:00:33.523Z,1.92
2023-12-11T01:03:01.817Z,1.27
2023-12-11T01:05:31.175Z,1.27
2023-12-11T01:07:59.113Z,0.95
2023-12-11T01:10:26.978Z,1.73
2023-12-11T01:12:56.225Z,1.20
2023-12-11T01:15:24.315Z,1.63
2023-12-11T01:17:52.537Z,1.90
2023-12-11T01:20:20.649Z,2.03
2023-12-11T01:22:49.839Z,1.83
2023-12-11T01:25:17.713Z,1.60
2023-12-11T01:27:45.685Z,0.85
2023-12-11T01:30:13.846Z,1.20
2023-12-11T01:32:41.813Z,1.42
2023-12-11T01:35:10.346Z,1.50
2023-12-11T01:37:38.236Z,1.27
2023-12-11T01:40:09.266Z,1.92
2023-12-11T01:42:37.274Z,1.33
2023-12-11T01:45:05.633Z,1.33
2023-12-11T01:47:34.302Z,1.27
2023-12-11T01:50:02.439Z,1.92
2023-12-11T01:52:30.548Z,1.25
2023-12-11T01:54:58.563Z,1.48
2023-12-11T01:57:28.508Z,1.65
2023-12-11T02:02:24.825Z,1.75
2023-12-11T02:04:55.101Z,1.58
2023-12-11T02:07:23.054Z,1.50
2023-12-11T02:09:51.119Z,1.60
2023-12-11T02:12:19.063Z,1.92
2023-12-11T02:14:48.297Z,1.80
2023-12-11T02:17:16.228Z,1.60
2023-12-11T02:19:44.246Z,2.10
2023-12-11T02:22:12.600Z,1.63
2023-12-11T02:24:44.653Z,1.95
2023-12-11T02:27:13.886Z,1.67
2023-12-11T02:29:41.769Z,2.23
2023-12-11T02:32:09.679Z,2.28
2023-12-11T02:34:38.124Z,1.85
2023-12-11T02:37:06.238Z,1.70
2023-12-11T02:39:34.399Z,1.80
2023-12-11T02:42:02.504Z,1.88
2023-12-11T02:44:32.209Z,1.88
2023-12-11T02:47:00.063Z,1.77
2023-12-11T02:49:28.057Z,1.55
2023-12-11T02:51:55.944Z,1.83
2023-12-11T02:54:23.799Z,2.05
2023-12-11T02:56:51.680Z,2.08
2023-12-11T02:59:19.771Z,1.85
2023-12-11T03:01:49.053Z,2.33
2023-12-11T03:04:17.116Z,1.85
2023-12-11T03:06:45.050Z,2.25
2023-12-11T03:09:12.967Z,2.80
2023-12-11T03:11:40.838Z,2.10
2023-12-11T03:14:08.697Z,2.00
2023-12-11T03:16:36.648Z,2.03
2023-12-11T03:19:06.025Z,2.03
2023-12-11T03:21:34.183Z,1.85
2023-12-11T03:24:01.146Z,2.42
2023-12-11T03:26:29.037Z,2.30
2023-12-11T03:28:56.882Z,2.03
2023-12-11T03:31:24.744Z,2.50
2023-12-11T03:33:52.713Z,1.92
2023-12-11T03:36:22.029Z,2.08
2023-12-11T03:38:49.874Z,2.20
2023-12-11T03:41:17.790Z,2.10
2023-12-11T03:43:45.625Z,2.60
2023-12-11T03:46:13.710Z,2.17
2023-12-11T03:48:41.760Z,1.85
2023-12-11T03:51:09.721Z,2.30
2023-12-11T03:53:38.984Z,2.55
2023-12-11T03:56:07.630Z,2.20
2023-12-11T03:58:35.514Z,2.45
2023-12-11T04:01:03.482Z,2.00
2023-12-11T04:03:32.559Z,2.60
2023-12-11T04:06:00.490Z,2.33
2023-12-11T04:08:28.483Z,2.38
2023-12-11T04:10:58.234Z,2.75
2023-12-11T04:13:26.087Z,2.30
2023-12-11T04:15:54.493Z,2.45
2023-12-11T04:18:22.490Z,1.52
2023-12-11T04:20:50.409Z,2.38
2023-12-11T04:23:18.339Z,2.15
2023-12-11T04:25:46.257Z,2.35
2023-12-11T04:28:15.777Z,2.30
2023-12-11T04:30:43.669Z,2.53
2023-12-11T04:33:11.710Z,2.13
2023-12-11T04:35:39.767Z,2.45
2023-12-11T04:38:07.628Z,2.67
2023-12-11T04:40:35.963Z,2.63
2023-12-11T04:43:04.031Z,2.08
2023-12-11T04:45:33.391Z,2.35
2023-12-11T04:48:01.419Z,1.65
2023-12-11T04:50:29.301Z,1.98
2023-12-11T04:52:57.186Z,2.72
2023-12-11T04:55:25.473Z,2.60
2023-12-11T04:57:53.420Z,1.80
2023-12-11T05:00:21.679Z,1.92
2023-12-11T05:02:50.901Z,2.47
2023-12-11T05:05:19.198Z,2.23
2023-12-11T05:07:47.170Z,2.17
2023-12-11T05:10:15.200Z,2.08
2023-12-11T05:12:43.121Z,1.90
2023-12-11T05:15:11.810Z,1.95
2023-12-11T05:17:39.737Z,1.83
2023-12-11T05:20:11.208Z,2.08
2023-12-11T05:22:39.135Z,1.52
2023-12-11T05:25:08.416Z,1.20
2023-12-11T05:27:36.319Z,2.33
2023-12-11T05:30:04.691Z,2.30
2023-12-11T05:32:32.710Z,2.30
2023-12-11T05:35:00.816Z,2.67
2023-12-11T05:37:30.226Z,2.38
2023-12-11T05:40:20.551Z,2.50
2023-12-11T05:42:46.188Z,2.03
2023-12-11T05:45:14.235Z,2.00
2023-12-11T05:47:42.124Z,2.67
2023-12-11T05:50:10.793Z,1.95
2023-12-11T05:52:40.024Z,2.40
2023-12-11T05:55:08.529Z,2.90
2023-12-11T05:57:36.532Z,2.13
2023-12-11T06:00:05.816Z,1.90
2023-12-11T06:02:34.054Z,2.50
2023-12-11T06:05:01.981Z,2.20
2023-12-11T06:07:30.107Z,1.83
2023-12-11T06:09:59.789Z,2.20
2023-12-11T06:12:28.667Z,2.45
2023-12-11T06:14:56.656Z,2.50
2023-12-11T06:17:24.549Z,2.00
2023-12-11T06:19:52.926Z,2.15
2023-12-11T06:22:20.870Z,1.90
2023-12-11T06:24:48.781Z,1.80
2023-12-11T06:27:17.998Z,1.73
2023-12-11T06:29:45.873Z,2.07
2023-12-11T06:32:13.982Z,1.80
2023-12-11T06:34:41.964Z,1.58
2023-12-11T06:37:10.214Z,2.03
2023-12-11T06:39:38.479Z,2.13
2023-12-11T06:42:06.909Z,1.77
2023-12-11T06:44:37.476Z,1.80
2023-12-11T06:47:06.090Z,1.65
2023-12-11T06:49:34.934Z,1.52
2023-12-11T06:52:03.094Z,1.60
2023-12-11T06:54:30.977Z,1.77
2023-12-11T06:56:58.847Z,1.42
2023-12-11T06:59:30.515Z,1.90
2023-12-11T07:01:59.835Z,1.63
2023-12-11T07:04:28.931Z,1.20
2023-12-11T07:06:57.063Z,1.87
2023-12-11T07:09:25.163Z,1.27
2023-12-11T07:11:54.053Z,1.20
2023-12-11T07:14:23.736Z,1.30
2023-12-11T07:16:51.923Z,1.88
2023-12-11T07:19:21.669Z,1.25
2023-12-11T07:21:49.818Z,1.45
2023-12-11T07:24:17.700Z,1.30
2023-12-11T07:26:45.674Z,1.25
2023-12-11T07:29:13.656Z,1.65
2023-12-11T07:31:43.770Z,1.50
2023-12-11T07:34:11.937Z,1.40
2023-12-11T07:36:41.347Z,1.38
2023-12-11T07:39:10.748Z,1.83
2023-12-11T07:41:38.614Z,1.27
2023-12-11T07:44:06.674Z,1.80
2023-12-11T07:46:34.561Z,1.38
2023-12-11T07:49:02.943Z,1.50
2023-12-11T07:51:30.929Z,1.63
2023-12-11T07:54:00.454Z,2.03
2023-12-11T07:56:30.887Z,1.85
2023-12-11T07:58:58.842Z,1.90
2023-12-11T08:01:31.769Z,1.80
2023-12-11T08:04:00.830Z,1.85
2023-12-11T08:06:29.155Z,2.00
2023-12-11T08:08:57.010Z,2.25
2023-12-11T08:11:28.209Z,2.03
2023-12-11T08:13:56.124Z,2.22
2023-12-11T08:16:25.275Z,2.10
2023-12-11T08:18:53.733Z,2.73
2023-12-11T08:21:21.654Z,2.42
2023-12-11T08:23:49.750Z,1.85
2023-12-11T08:26:19.315Z,2.08
2023-12-11T08:28:49.593Z,2.88
2023-12-11T08:31:17.682Z,2.05
2023-12-11T08:33:45.790Z,2.30
2023-12-11T08:36:13.803Z,1.65
2023-12-11T08:38:41.723Z,1.73
2023-12-11T08:41:09.627Z,2.58
2023-12-11T08:43:37.735Z,1.65
2023-12-11T08:46:07.505Z,2.15
2023-12-11T08:48:35.792Z,1.70
2023-12-11T08:51:03.776Z,1.73
2023-12-11T08:53:31.683Z,1.58
2023-12-11T08:55:59.647Z,2.10
2023-12-11T08:58:27.541Z,1.75
2023-12-11T09:00:55.462Z,1.83
2023-12-11T09:03:24.791Z,1.98
2023-12-11T09:05:55.395Z,1.83
2023-12-11T09:08:24.864Z,2.00
2023-12-11T09:10:52.704Z,2.00
2023-12-11T09:13:20.619Z,1.88
2023-12-11T09:15:48.642Z,2.97
2023-12-11T09:18:16.684Z,1.70
2023-12-11T09:20:46.020Z,1.80
2023-12-11T09:23:13.932Z,2.03
2023-12-11T09:25:41.780Z,1.65
2023-12-11T09:28:09.697Z,1.73
2023-12-11T09:30:37.694Z,1.83
2023-12-11T09:33:05.821Z,1.25
2023-12-11T09:35:33.869Z,1.50
2023-12-11T09:38:03.501Z,1.63
2023-12-11T09:40:31.530Z,1.65
2023-12-11T09:43:03.106Z,1.80
2023-12-11T09:45:32.338Z,1.60
2023-12-11T09:48:08.728Z,1.50
2023-12-11T09:50:42.377Z,1.90
2023-12-11T09:53:11.784Z,2.03
2023-12-11T09:55:39.631Z,2.15
2023-12-11T09:58:08.819Z,1.90
2023-12-11T10:00:38.028Z,1.33
2023-12-11T10:03:09.178Z,1.85
2023-12-11T10:05:39.095Z,1.48
2023-12-11T10:08:07.125Z,1.60
2023-12-11T10:10:39.229Z,1.50
2023-12-11T10:13:07.753Z,1.60
2023-12-11T10:15:37.638Z,1.63
2023-12-11T10:20:36.251Z,1.53
2023-12-11T10:23:15.912Z,1.15
2023-12-11T10:25:46.948Z,0.98
2023-12-11T10:28:16.671Z,1.17
2023-12-11T10:33:20.759Z,1.50
2023-12-11T10:35:49.434Z,1.67
2023-12-11T10:38:24.496Z,1.73
2023-12-11T10:40:55.989Z,1.17
2023-12-11T10:43:24.009Z,1.33
2023-12-11T10:45:52.786Z,1.67
2023-12-11T10:48:22.169Z,1.15
2023-12-11T10:50:51.378Z,1.13
2023-12-11T10:53:20.503Z,1.42
2023-12-11T10:55:50.894Z,1.70
2023-12-11T10:58:20.528Z,1.30
2023-12-11T11:00:48.835Z,1.20
2023-12-11T11:03:17.190Z,1.02
2023-12-11T11:05:46.024Z,1.08
2023-12-11T11:08:24.661Z,1.33
2023-12-11T11:10:56.058Z,0.98
2023-12-11T11:13:29.858Z,1.10
2023-12-11T11:15:58.173Z,1.35
2023-12-11T11:18:26.121Z,1.15
2023-12-11T11:21:14.043Z,1.45
2023-12-11T11:23:44.167Z,1.08
2023-12-11T11:28:59.608Z,1.67
2023-12-11T11:31:52.344Z,1.52
2023-12-11T11:34:45.600Z,1.25
2023-12-11T11:37:18.202Z,0.95
2023-12-11T11:39:59.736Z,1.02
2023-12-11T11:42:28.431Z,0.93
2023-12-11T11:44:59.295Z,1.30
2023-12-11T11:47:27.580Z,1.10
2023-12-11T11:49:56.057Z,1.05
2023-12-11T11:52:28.949Z,1.05
2023-12-11T11:55:02.718Z,0.80
2023-12-11T11:57:30.802Z,1.27
2023-12-11T12:00:00.688Z,0.90
2023-12-11T12:02:28.522Z,1.17
2023-12-11T12:04:56.742Z,1.13
2023-12-11T12:07:24.636Z,1.40
2023-12-11T12:09:53.919Z,0.80
2023-12-11T12:12:21.893Z,0.90
2023-12-11T12:15:03.239Z,0.88
2023-12-11T12:17:31.591Z,0.98
2023-12-11T12:20:00.636Z,0.70
2023-12-11T12:22:29.351Z,1.27
2023-12-11T12:24:57.342Z,1.13
2023-12-11T12:27:26.876Z,1.10
2023-12-11T12:29:55.587Z,1.20
2023-12-11T12:32:25.861Z,0.60
2023-12-11T12:34:55.623Z,1.08
2023-12-11T12:39:57.685Z,1.05
2023-12-11T12:42:31.126Z,0.85
2023-12-11T12:44:58.900Z,1.00
2023-12-11T12:47:28.487Z,0.73
2023-12-11T12:49:56.740Z,0.85
2023-12-11T12:52:25.243Z,0.68
2023-12-11T12:54:56.077Z,0.80
2023-12-11T12:57:24.638Z,0.73
2023-12-11T12:59:52.626Z,0.90
2023-12-11T13:02:20.395Z,1.00
2023-12-11T13:04:53.555Z,0.80
2023-12-11T13:07:23.383Z,1.60
2023-12-11T13:09:52.435Z,1.48
2023-12-11T13:12:21.853Z,1.30
2023-12-11T13:14:50.546Z,1.23
2023-12-11T13:17:18.534Z,1.35
2023-12-11T13:19:46.457Z,1.20
2023-12-11T13:22:16.241Z,1.20
2023-12-11T13:24:44.769Z,1.30
2023-12-11T13:27:12.561Z,1.30
2023-12-11T13:29:40.376Z,1.00
2023-12-11T13:32:08.955Z,1.42
2023-12-11T13:34:37.324Z,1.83
2023-12-11T13:37:05.750Z,1.40
2023-12-11T13:39:36.185Z,1.55
2023-12-11T13:42:04.355Z,1.33
2023-12-11T13:44:32.396Z,1.45
2023-12-11T13:47:00.453Z,1.50
2023-12-11T13:49:28.469Z,1.20
2023-12-11T13:51:56.361Z,1.30
2023-12-11T13:54:24.909Z,1.45
2023-12-11T13:56:54.121Z,1.55
2023-12-11T13:59:23.505Z,1.37
2023-12-11T14:01:53.086Z,1.45
2023-12-11T14:04:21.385Z,1.17
2023-12-11T14:06:49.323Z,1.35
2023-12-11T14:09:17.367Z,1.58
2023-12-11T14:11:45.133Z,1.40
2023-12-11T14:14:15.438Z,1.40
2023-12-11T14:16:43.267Z,1.25
2023-12-11T14:19:11.117Z,1.10
2023-12-11T14:21:38.957Z,1.10
2023-12-11T14:24:07.369Z,1.05
2023-12-11T14:26:43.557Z,1.40
2023-12-11T14:29:17.012Z,1.10
2023-12-11T14:31:46.527Z,0.80
2023-12-11T14:34:15.805Z,0.90
2023-12-11T14:36:44.297Z,1.08
2023-12-11T14:39:12.092Z,1.25
2023-12-11T14:41:44.054Z,1.17
2023-12-11T14:44:12.690Z,0.95
2023-12-11T14:46:42.130Z,1.00
2023-12-11T14:49:10.009Z,1.05
2023-12-11T14:51:40.284Z,1.00
2023-12-11T14:54:08.884Z,1.13
2023-12-11T14:56:37.452Z,0.85
2023-12-11T14:59:05.257Z,0.98
2023-12-11T15:01:33.348Z,0.82
2023-12-11T15:04:02.909Z,0.95
2023-12-11T15:06:30.796Z,1.00
2023-12-11T15:08:59.285Z,0.70
2023-12-11T15:11:28.457Z,0.98
2023-12-11T15:13:56.776Z,0.82
2023-12-11T15:16:25.195Z,1.10
2023-12-11T15:18:54.242Z,1.08
2023-12-11T15:21:23.914Z,1.40
2023-12-11T15:23:51.784Z,1.20
2023-12-11T15:26:20.358Z,0.80
2023-12-11T15:28:48.263Z,0.98
2023-12-11T15:31:22.113Z,1.55
2023-12-11T15:33:50.053Z,0.70
2023-12-11T15:36:19.541Z,1.02
2023-12-11T15:38:48.819Z,0.90
2023-12-11T15:41:17.468Z,0.90
2023-12-11T15:43:46.763Z,1.00
2023-12-11T15:46:14.779Z,0.90
2023-12-11T15:48:46.032Z,0.60
2023-12-11T15:51:16.336Z,0.93
2023-12-11T15:53:45.312Z,0.90
2023-12-11T15:56:17.168Z,0.83
2023-12-11T15:58:45.815Z,1.30
2023-12-11T16:01:15.537Z,1.67
2023-12-11T16:03:43.674Z,0.90
2023-12-11T16:06:12.270Z,1.10
2023-12-11T16:08:40.076Z,1.45
2023-12-11T16:11:08.163Z,1.13
2023-12-11T16:13:37.319Z,1.10
2023-12-11T16:16:05.849Z,1.33
2023-12-11T16:18:33.846Z,0.98
2023-12-11T16:21:01.924Z,0.80
2023-12-11T16:23:29.686Z,1.65
2023-12-11T16:26:02.990Z,1.10
2023-12-11T16:28:34.455Z,1.42
2023-12-11T16:31:03.871Z,1.10
2023-12-11T16:33:32.265Z,1.63
2023-12-11T16:36:00.337Z,0.80
2023-12-11T16:38:27.318Z,1.10
2023-12-11T16:40:55.105Z,1.00
2023-12-11T16:43:22.959Z,1.02
2023-12-11T16:45:50.984Z,0.90
2023-12-11T16:48:20.311Z,2.08
2023-12-11T16:50:48.850Z,0.80
2023-12-11T16:53:17.083Z,1.27
2023-12-11T16:55:44.900Z,1.27
2023-12-11T16:58:12.792Z,1.23
2023-12-11T17:00:40.672Z,1.27
2023-12-11T17:03:08.687Z,0.90
2023-12-11T17:05:37.923Z,1.48
2023-12-11T17:08:06.110Z,1.00
2023-12-11T17:10:33.998Z,1.27
2023-12-11T17:13:01.936Z,1.50
2023-12-11T17:15:29.755Z,1.58
2023-12-11T17:17:57.677Z,1.70
2023-12-11T17:20:25.542Z,1.30
2023-12-11T17:22:54.689Z,1.50
2023-12-11T17:25:22.552Z,1.10
2023-12-11T17:27:50.452Z,1.15
2023-12-11T17:30:18.992Z,1.48
2023-12-11T17:32:46.828Z,1.27
2023-12-11T17:35:15.213Z,1.13
2023-12-11T17:37:43.304Z,0.88
2023-12-11T17:40:13.064Z,1.23
2023-12-11T17:42:40.911Z,1.60
2023-12-11T17:45:09.330Z,1.27
2023-12-11T17:47:37.301Z,1.08
2023-12-11T17:50:06.211Z,1.20
2023-12-11T17:52:34.410Z,0.98
2023-12-11T17:55:04.037Z,1.20
2023-12-11T17:57:33.379Z,1.30
2023-12-11T18:00:01.733Z,1.17
2023-12-11T18:02:29.749Z,1.20
2023-12-11T18:04:57.818Z,0.88
2023-12-11T18:07:26.821Z,1.92
2023-12-11T18:09:54.718Z,1.80
2023-12-11T18:12:22.809Z,1.30
2023-12-11T18:14:52.149Z,1.00
2023-12-11T18:17:19.941Z,1.25
2023-12-11T18:19:47.890Z,0.90
2023-12-11T18:22:16.515Z,0.90
2023-12-11T18:24:44.432Z,1.10
2023-12-11T18:27:12.312Z,1.10
2023-12-11T18:29:40.086Z,1.00
2023-12-11T18:32:09.606Z,1.08
2023-12-11T18:34:43.587Z,1.50
2023-12-11T18:37:21.303Z,2.00
2023-12-11T18:39:49.220Z,1.80
2023-12-11T18:42:17.490Z,1.95
2023-12-11T18:44:45.663Z,1.63
2023-12-11T18:47:14.788Z,1.50
2023-12-11T18:49:44.242Z,1.38
2023-12-11T18:52:15.439Z,1.55
2023-12-11T18:54:43.880Z,1.52
2023-12-11T18:57:12.969Z,1.48
2023-12-11T18:59:40.777Z,1.10
2023-12-11T19:02:09.072Z,2.63
2023-12-11T19:04:38.519Z,1.98
2023-12-11T19:07:06.523Z,2.15
2023-12-11T19:09:34.355Z,2.00
2023-12-11T19:12:02.224Z,1.85
2023-12-11T19:14:30.021Z,2.03
2023-12-11T19:16:57.869Z,2.13
2023-12-11T19:19:25.803Z,1.88
2023-12-11T19:21:55.123Z,1.95
2023-12-11T19:24:23.049Z,1.90
2023-12-11T19:26:50.830Z,2.00
2023-12-11T19:29:18.694Z,1.45
2023-12-11T19:31:46.805Z,2.10
2023-12-11T19:34:16.549Z,1.83
2023-12-11T19:36:44.610Z,1.77
2023-12-11T19:39:13.870Z,2.17
2023-12-11T19:41:43.682Z,2.40
2023-12-11T19:46:44.773Z,2.00
2023-12-11T19:49:12.873Z,1.75
2023-12-11T19:51:44.156Z,2.22
2023-12-11T19:54:13.467Z,2.00
2023-12-11T19:56:41.697Z,2.27
2023-12-11T19:59:10.100Z,1.50
2023-12-11T20:01:38.149Z,2.35
2023-12-11T20:04:06.796Z,1.52
2023-12-11T20:06:34.890Z,1.98
2023-12-11T20:09:02.806Z,1.23
2023-12-11T20:11:31.993Z,1.55
2023-12-11T20:14:00.269Z,1.43
2023-12-11T20:16:30.040Z,1.08
2023-12-11T20:18:57.941Z,1.20
2023-12-11T20:21:26.116Z,1.20
2023-12-11T20:23:53.951Z,1.20
2023-12-11T20:26:23.419Z,1.60
2023-12-11T20:28:52.658Z,1.07
2023-12-11T20:31:21.017Z,1.40
2023-12-11T20:33:49.066Z,1.50
2023-12-11T20:36:17.934Z,1.73
2023-12-11T20:38:45.895Z,1.70
2023-12-11T20:41:24.106Z,1.35
2023-12-11T20:43:56.603Z,1.50
2023-12-11T20:46:25.376Z,1.45
2023-12-11T20:48:54.006Z,1.38
2023-12-11T20:51:22.785Z,1.10
2023-12-11T20:53:51.940Z,1.02
2023-12-11T20:56:21.107Z,1.20
2023-12-11T20:58:49.342Z,1.27
2023-12-11T21:01:29.168Z,1.02
2023-12-11T21:06:26.020Z,1.60
2023-12-11T21:08:54.544Z,1.27
2023-12-11T21:11:22.407Z,1.52
2023-12-11T21:13:50.880Z,1.52
2023-12-11T21:16:19.436Z,1.13
2023-12-11T21:18:50.461Z,1.45
2023-12-11T21:21:19.023Z,1.55
2023-12-11T21:23:47.395Z,1.20
2023-12-11T21:26:15.997Z,0.95
2023-12-11T21:28:43.883Z,1.20
2023-12-11T21:31:18.985Z,1.27
2023-12-11T21:33:48.222Z,0.95
2023-12-11T21:36:16.188Z,1.00
2023-12-11T21:38:44.092Z,0.90
2023-12-11T21:41:14.716Z,1.00
2023-12-11T21:43:46.797Z,1.30
2023-12-11T21:46:15.198Z,1.13
2023-12-11T21:48:45.077Z,0.93
2023-12-11T21:53:44.033Z,1.23
2023-12-11T21:56:12.034Z,1.20
2023-12-11T21:58:39.854Z,1.10
2023-12-11T22:01:08.092Z,1.08
2023-12-11T22:03:36.120Z,1.23
2023-12-11T22:06:04.371Z,1.13
2023-12-11T22:08:33.700Z,1.05
2023-12-11T22:11:01.599Z,1.23
2023-12-11T22:13:30.223Z,0.88
2023-12-11T22:15:58.691Z,1.23
2023-12-11T22:18:26.577Z,1.05
2023-12-11T22:20:54.428Z,0.80
2023-12-11T22:23:22.249Z,1.20
2023-12-11T22:25:51.395Z,1.15
2023-12-11T22:28:19.207Z,1.10
2023-12-11T22:30:47.181Z,1.00
2023-12-11T22:33:15.077Z,1.20
2023-12-11T22:35:42.904Z,1.33
2023-12-11T22:38:12.931Z,1.42
2023-12-11T22:40:41.266Z,1.10
2023-12-11T22:43:10.420Z,0.98
2023-12-11T22:45:38.467Z,1.17
2023-12-11T22:48:07.136Z,1.17
2023-12-11T22:50:35.293Z,1.20
2023-12-11T22:53:02.208Z,1.30
2023-12-11T22:55:30.099Z,1.00
2023-12-11T22:58:06.615Z,0.98
2023-12-11T23:00:43.467Z,0.90
2023-12-11T23:03:11.274Z,0.88
2023-12-11T23:05:39.297Z,1.42
2023-12-11T23:08:07.430Z,1.15
2023-12-11T23:10:35.399Z,1.25
2023-12-11T23:13:03.519Z,0.90
2023-12-11T23:15:31.544Z,0.90
2023-12-11T23:18:00.805Z,0.95
2023-12-11T23:20:28.634Z,0.90
2023-12-11T23:22:56.535Z,0.80
2023-12-11T23:25:24.822Z,0.95
2023-12-11T23:27:52.804Z,0.70
2023-12-11T23:30:20.691Z,0.65
2023-12-11T23:32:48.624Z,1.02
2023-12-11T23:35:17.976Z,1.08
2023-12-11T23:37:45.838Z,0.70
2023-12-11T23:40:14.053Z,0.85
2023-12-11T23:42:42.155Z,0.90
2023-12-11T23:45:10.383Z,0.88
2023-12-11T23:47:38.751Z,1.00
2023-12-11T23:50:08.419Z,0.90
2023-12-11T23:52:37.769Z,0.90
2023-12-11T23:55:06.362Z,0.93
2023-12-11T23:57:34.746Z,1.08
